sensor_id;sensor_type;location;lat;lon;timestamp;P1;durP1;ratioP1;P2;durP2;ratioP2
68923;SDS011;55961;52.156;20.942;2023-02-14T00:01:44;13.15;;;5.43;;
68923;SDS011;55961;52.156;20.942;2023-02-14T00:04:11;11.65;;;4.95;;
68923;SDS011;55961;52.156;20.942;2023-02-14T00:06:38;14.97;;;6.10;;
68923;SDS011;55961;52.156;20.942;2023-02-14T00:09:04;14.30;;;6.03;;
68923;SDS011;55961;52.156;20.942;2023-02-14T00:11:32;11.63;;;5.45;;
68923;SDS011;55961;52.156;20.942;2023-02-14T00:13:58;13.50;;;5.95;;
68923;SDS011;55961;52.156;20.942;2023-02-14T00:16:43;17.25;;;5.28;;
68923;SDS011;55961;52.156;20.942;2023-02-14T00:19:12;10.30;;;4.80;;
68923;SDS011;55961;52.156;20.942;2023-02-14T00:21:39;12.18;;;5.47;;
68923;SDS011;55961;52.156;20.942;2023-02-14T00:24:07;11.55;;;4.93;;
68923;SDS011;55961;52.156;20.942;2023-02-14T00:26:54;11.23;;;5.00;;
68923;SDS011;55961;52.156;20.942;2023-02-14T00:29:21;15.10;;;3.60;;
68923;SDS011;55961;52.156;20.942;2023-02-14T00:31:48;12.40;;;5.43;;
68923;SDS011;55961;52.156;20.942;2023-02-14T00:34:15;12.55;;;4.70;;
68923;SDS011;55961;52.156;20.942;2023-02-14T00:36:42;12.57;;;4.45;;
68923;SDS011;55961;52.156;20.942;2023-02-14T00:39:09;11.00;;;5.23;;
68923;SDS011;55961;52.156;20.942;2023-02-14T00:41:36;10.27;;;4.68;;
68923;SDS011;55961;52.156;20.942;2023-02-14T00:44:03;13.00;;;4.72;;
68923;SDS011;55961;52.156;20.942;2023-02-14T00:46:30;12.20;;;4.10;;
68923;SDS011;55961;52.156;20.942;2023-02-14T00:48:55;11.57;;;4.38;;
68923;SDS011;55961;52.156;20.942;2023-02-14T00:51:22;11.97;;;3.97;;
68923;SDS011;55961;52.156;20.942;2023-02-14T00:53:48;10.93;;;3.83;;
68923;SDS011;55961;52.156;20.942;2023-02-14T00:56:15;11.40;;;4.82;;
68923;SDS011;55961;52.156;20.942;2023-02-14T00:58:42;11.88;;;4.10;;
68923;SDS011;55961;52.156;20.942;2023-02-14T01:01:09;9.77;;;4.40;;
68923;SDS011;55961;52.156;20.942;2023-02-14T01:03:35;11.07;;;4.83;;
68923;SDS011;55961;52.156;20.942;2023-02-14T01:06:01;9.70;;;3.50;;
68923;SDS011;55961;52.156;20.942;2023-02-14T01:08:28;12.13;;;4.60;;
68923;SDS011;55961;52.156;20.942;2023-02-14T01:10:54;13.00;;;4.50;;
68923;SDS011;55961;52.156;20.942;2023-02-14T01:13:20;10.90;;;4.37;;
68923;SDS011;55961;52.156;20.942;2023-02-14T01:15:47;12.88;;;5.15;;
68923;SDS011;55961;52.156;20.942;2023-02-14T01:18:15;9.25;;;3.70;;
68923;SDS011;55961;52.156;20.942;2023-02-14T01:20:42;10.65;;;4.55;;
68923;SDS011;55961;52.156;20.942;2023-02-14T01:23:08;10.27;;;4.82;;
68923;SDS011;55961;52.156;20.942;2023-02-14T01:25:38;9.20;;;4.20;;
68923;SDS011;55961;52.156;20.942;2023-02-14T01:28:04;11.00;;;4.80;;
68923;SDS011;55961;52.156;20.942;2023-02-14T01:30:31;10.10;;;4.55;;
68923;SDS011;55961;52.156;20.942;2023-02-14T01:32:56;13.88;;;5.03;;
68923;SDS011;55961;52.156;20.942;2023-02-14T01:35:23;12.27;;;5.37;;
68923;SDS011;55961;52.156;20.942;2023-02-14T01:37:49;12.85;;;3.95;;
68923;SDS011;55961;52.156;20.942;2023-02-14T01:40:15;11.25;;;5.60;;
68923;SDS011;55961;52.156;20.942;2023-02-14T01:42:41;14.20;;;4.78;;
68923;SDS011;55961;52.156;20.942;2023-02-14T01:45:20;11.18;;;5.20;;
68923;SDS011;55961;52.156;20.942;2023-02-14T01:47:51;12.03;;;5.27;;
68923;SDS011;55961;52.156;20.942;2023-02-14T01:50:21;12.18;;;5.22;;
68923;SDS011;55961;52.156;20.942;2023-02-14T01:52:54;11.75;;;5.82;;
68923;SDS011;55961;52.156;20.942;2023-02-14T01:55:28;17.48;;;6.30;;
68923;SDS011;55961;52.156;20.942;2023-02-14T01:57:58;11.70;;;5.22;;
68923;SDS011;55961;52.156;20.942;2023-02-14T02:00:29;13.03;;;5.87;;
68923;SDS011;55961;52.156;20.942;2023-02-14T02:03:15;12.88;;;5.47;;
68923;SDS011;55961;52.156;20.942;2023-02-14T02:05:44;13.90;;;5.47;;
68923;SDS011;55961;52.156;20.942;2023-02-14T02:08:17;9.20;;;4.03;;
68923;SDS011;55961;52.156;20.942;2023-02-14T02:10:43;11.65;;;3.67;;
68923;SDS011;55961;52.156;20.942;2023-02-14T02:13:13;13.03;;;5.50;;
68923;SDS011;55961;52.156;20.942;2023-02-14T02:15:46;16.60;;;6.55;;
68923;SDS011;55961;52.156;20.942;2023-02-14T02:18:50;11.18;;;4.47;;
68923;SDS011;55961;52.156;20.942;2023-02-14T02:26:57;13.70;;;5.57;;
68923;SDS011;55961;52.156;20.942;2023-02-14T02:32:43;11.18;;;5.47;;
68923;SDS011;55961;52.156;20.942;2023-02-14T02:35:16;14.98;;;5.00;;
68923;SDS011;55961;52.156;20.942;2023-02-14T02:43:38;15.75;;;5.55;;
68923;SDS011;55961;52.156;20.942;2023-02-14T02:46:16;13.63;;;5.47;;
68923;SDS011;55961;52.156;20.942;2023-02-14T02:55:13;14.40;;;5.88;;
68923;SDS011;55961;52.156;20.942;2023-02-14T02:57:47;15.60;;;6.20;;
68923;SDS011;55961;52.156;20.942;2023-02-14T03:00:15;16.05;;;6.60;;
68923;SDS011;55961;52.156;20.942;2023-02-14T03:02:44;17.38;;;6.90;;
68923;SDS011;55961;52.156;20.942;2023-02-14T03:05:32;13.93;;;6.10;;
68923;SDS011;55961;52.156;20.942;2023-02-14T03:07:59;14.82;;;6.50;;
68923;SDS011;55961;52.156;20.942;2023-02-14T03:10:27;12.95;;;5.63;;
68923;SDS011;55961;52.156;20.942;2023-02-14T03:21:59;14.73;;;6.22;;
68923;SDS011;55961;52.156;20.942;2023-02-14T03:27:06;15.90;;;6.90;;
68923;SDS011;55961;52.156;20.942;2023-02-14T03:32:12;15.93;;;6.77;;
68923;SDS011;55961;52.156;20.942;2023-02-14T03:40:07;12.73;;;5.55;;
68923;SDS011;55961;52.156;20.942;2023-02-14T03:45:06;15.67;;;6.47;;
68923;SDS011;55961;52.156;20.942;2023-02-14T03:47:36;11.10;;;4.32;;
68923;SDS011;55961;52.156;20.942;2023-02-14T03:50:06;18.27;;;6.72;;
68923;SDS011;55961;52.156;20.942;2023-02-14T03:52:35;14.75;;;5.80;;
68923;SDS011;55961;52.156;20.942;2023-02-14T03:55:02;16.30;;;6.75;;
68923;SDS011;55961;52.156;20.942;2023-02-14T04:00:01;13.07;;;6.05;;
68923;SDS011;55961;52.156;20.942;2023-02-14T04:02:30;13.63;;;5.88;;
68923;SDS011;55961;52.156;20.942;2023-02-14T04:05:03;14.52;;;6.35;;
68923;SDS011;55961;52.156;20.942;2023-02-14T04:07:47;12.73;;;5.97;;
68923;SDS011;55961;52.156;20.942;2023-02-14T04:10:15;15.53;;;6.30;;
68923;SDS011;55961;52.156;20.942;2023-02-14T04:12:41;12.57;;;5.90;;
68923;SDS011;55961;52.156;20.942;2023-02-14T04:15:07;13.68;;;5.68;;
68923;SDS011;55961;52.156;20.942;2023-02-14T04:17:34;14.55;;;6.50;;
68923;SDS011;55961;52.156;20.942;2023-02-14T04:20:18;19.90;;;6.13;;
68923;SDS011;55961;52.156;20.942;2023-02-14T04:22:44;11.85;;;5.25;;
68923;SDS011;55961;52.156;20.942;2023-02-14T04:25:10;15.00;;;6.65;;
68923;SDS011;55961;52.156;20.942;2023-02-14T04:27:37;17.02;;;6.00;;
68923;SDS011;55961;52.156;20.942;2023-02-14T04:30:03;19.30;;;6.53;;
68923;SDS011;55961;52.156;20.942;2023-02-14T04:32:29;18.60;;;6.05;;
68923;SDS011;55961;52.156;20.942;2023-02-14T04:34:55;17.70;;;6.43;;
68923;SDS011;55961;52.156;20.942;2023-02-14T04:37:21;12.33;;;5.30;;
68923;SDS011;55961;52.156;20.942;2023-02-14T04:39:47;15.57;;;6.18;;
68923;SDS011;55961;52.156;20.942;2023-02-14T04:42:13;12.23;;;5.55;;
68923;SDS011;55961;52.156;20.942;2023-02-14T04:44:39;15.97;;;6.27;;
68923;SDS011;55961;52.156;20.942;2023-02-14T04:47:05;15.23;;;6.45;;
68923;SDS011;55961;52.156;20.942;2023-02-14T04:49:32;15.90;;;6.45;;
68923;SDS011;55961;52.156;20.942;2023-02-14T04:51:58;17.63;;;6.25;;
68923;SDS011;55961;52.156;20.942;2023-02-14T04:54:24;18.80;;;7.07;;
68923;SDS011;55961;52.156;20.942;2023-02-14T04:56:51;17.17;;;6.70;;
68923;SDS011;55961;52.156;20.942;2023-02-14T04:59:16;19.10;;;6.53;;
68923;SDS011;55961;52.156;20.942;2023-02-14T05:01:43;15.70;;;5.90;;
68923;SDS011;55961;52.156;20.942;2023-02-14T05:04:09;18.17;;;7.23;;
68923;SDS011;55961;52.156;20.942;2023-02-14T05:06:35;19.75;;;7.93;;
68923;SDS011;55961;52.156;20.942;2023-02-14T05:09:01;21.10;;;7.50;;
68923;SDS011;55961;52.156;20.942;2023-02-14T05:11:28;20.00;;;7.35;;
68923;SDS011;55961;52.156;20.942;2023-02-14T05:13:54;14.77;;;6.00;;
68923;SDS011;55961;52.156;20.942;2023-02-14T05:16:20;18.73;;;7.53;;
68923;SDS011;55961;52.156;20.942;2023-02-14T05:18:46;14.35;;;5.25;;
68923;SDS011;55961;52.156;20.942;2023-02-14T05:21:12;18.05;;;7.00;;
68923;SDS011;55961;52.156;20.942;2023-02-14T05:23:38;15.35;;;6.63;;
68923;SDS011;55961;52.156;20.942;2023-02-14T05:26:05;18.17;;;7.15;;
68923;SDS011;55961;52.156;20.942;2023-02-14T05:28:31;20.20;;;7.57;;
68923;SDS011;55961;52.156;20.942;2023-02-14T05:30:57;18.02;;;7.18;;
68923;SDS011;55961;52.156;20.942;2023-02-14T05:33:23;18.75;;;7.28;;
68923;SDS011;55961;52.156;20.942;2023-02-14T05:35:50;14.05;;;6.57;;
68923;SDS011;55961;52.156;20.942;2023-02-14T05:38:16;18.57;;;7.93;;
68923;SDS011;55961;52.156;20.942;2023-02-14T05:40:42;19.77;;;7.53;;
68923;SDS011;55961;52.156;20.942;2023-02-14T05:43:08;20.35;;;8.48;;
68923;SDS011;55961;52.156;20.942;2023-02-14T05:45:35;16.10;;;6.20;;
68923;SDS011;55961;52.156;20.942;2023-02-14T05:48:01;24.97;;;7.50;;
68923;SDS011;55961;52.156;20.942;2023-02-14T05:50:28;20.88;;;7.68;;
68923;SDS011;55961;52.156;20.942;2023-02-14T05:52:54;19.70;;;8.20;;
68923;SDS011;55961;52.156;20.942;2023-02-14T05:55:21;19.02;;;7.93;;
68923;SDS011;55961;52.156;20.942;2023-02-14T05:57:47;17.65;;;7.03;;
68923;SDS011;55961;52.156;20.942;2023-02-14T06:00:13;13.00;;;6.37;;
68923;SDS011;55961;52.156;20.942;2023-02-14T06:02:39;22.48;;;8.73;;
68923;SDS011;55961;52.156;20.942;2023-02-14T06:05:06;18.27;;;7.38;;
68923;SDS011;55961;52.156;20.942;2023-02-14T06:07:32;19.10;;;7.28;;
68923;SDS011;55961;52.156;20.942;2023-02-14T06:09:58;21.63;;;7.68;;
68923;SDS011;55961;52.156;20.942;2023-02-14T06:12:24;25.77;;;9.63;;
68923;SDS011;55961;52.156;20.942;2023-02-14T06:14:50;23.88;;;8.95;;
68923;SDS011;55961;52.156;20.942;2023-02-14T06:17:15;22.10;;;8.17;;
68923;SDS011;55961;52.156;20.942;2023-02-14T06:19:42;14.65;;;5.70;;
68923;SDS011;55961;52.156;20.942;2023-02-14T06:22:07;21.67;;;8.65;;
68923;SDS011;55961;52.156;20.942;2023-02-14T06:24:34;27.55;;;9.75;;
68923;SDS011;55961;52.156;20.942;2023-02-14T06:26:59;23.20;;;9.67;;
68923;SDS011;55961;52.156;20.942;2023-02-14T06:29:25;17.73;;;8.32;;
68923;SDS011;55961;52.156;20.942;2023-02-14T06:31:51;17.10;;;7.43;;
68923;SDS011;55961;52.156;20.942;2023-02-14T06:34:17;15.90;;;6.80;;
68923;SDS011;55961;52.156;20.942;2023-02-14T06:36:43;18.90;;;8.15;;
68923;SDS011;55961;52.156;20.942;2023-02-14T06:39:09;18.40;;;7.72;;
68923;SDS011;55961;52.156;20.942;2023-02-14T06:41:35;15.65;;;7.03;;
68923;SDS011;55961;52.156;20.942;2023-02-14T06:44:01;15.27;;;7.40;;
68923;SDS011;55961;52.156;20.942;2023-02-14T06:46:27;20.58;;;7.68;;
68923;SDS011;55961;52.156;20.942;2023-02-14T06:48:53;21.17;;;9.73;;
68923;SDS011;55961;52.156;20.942;2023-02-14T06:51:19;20.83;;;8.03;;
68923;SDS011;55961;52.156;20.942;2023-02-14T06:53:45;18.45;;;7.07;;
68923;SDS011;55961;52.156;20.942;2023-02-14T06:56:11;36.08;;;10.88;;
68923;SDS011;55961;52.156;20.942;2023-02-14T06:58:37;22.58;;;8.55;;
68923;SDS011;55961;52.156;20.942;2023-02-14T07:01:03;19.13;;;6.63;;
68923;SDS011;55961;52.156;20.942;2023-02-14T07:03:29;16.95;;;8.15;;
68923;SDS011;55961;52.156;20.942;2023-02-14T07:05:56;21.47;;;8.40;;
68923;SDS011;55961;52.156;20.942;2023-02-14T07:08:22;20.38;;;7.35;;
68923;SDS011;55961;52.156;20.942;2023-02-14T07:10:48;19.38;;;8.52;;
68923;SDS011;55961;52.156;20.942;2023-02-14T07:13:14;21.50;;;8.45;;
68923;SDS011;55961;52.156;20.942;2023-02-14T07:15:40;21.90;;;8.67;;
68923;SDS011;55961;52.156;20.942;2023-02-14T07:18:06;24.00;;;9.35;;
68923;SDS011;55961;52.156;20.942;2023-02-14T07:20:35;25.30;;;9.55;;
68923;SDS011;55961;52.156;20.942;2023-02-14T07:23:01;20.20;;;7.15;;
68923;SDS011;55961;52.156;20.942;2023-02-14T07:25:27;18.63;;;7.93;;
68923;SDS011;55961;52.156;20.942;2023-02-14T07:27:53;18.93;;;7.47;;
68923;SDS011;55961;52.156;20.942;2023-02-14T07:30:19;17.25;;;6.95;;
68923;SDS011;55961;52.156;20.942;2023-02-14T07:32:46;19.52;;;7.57;;
68923;SDS011;55961;52.156;20.942;2023-02-14T07:35:11;16.57;;;6.87;;
68923;SDS011;55961;52.156;20.942;2023-02-14T07:37:37;18.48;;;7.35;;
68923;SDS011;55961;52.156;20.942;2023-02-14T07:40:04;18.13;;;7.47;;
68923;SDS011;55961;52.156;20.942;2023-02-14T07:42:31;21.92;;;7.78;;
68923;SDS011;55961;52.156;20.942;2023-02-14T07:44:57;14.55;;;4.82;;
68923;SDS011;55961;52.156;20.942;2023-02-14T07:47:23;19.73;;;7.50;;
68923;SDS011;55961;52.156;20.942;2023-02-14T07:49:49;20.35;;;8.38;;
68923;SDS011;55961;52.156;20.942;2023-02-14T07:52:15;22.13;;;6.75;;
68923;SDS011;55961;52.156;20.942;2023-02-14T07:54:41;20.10;;;6.90;;
68923;SDS011;55961;52.156;20.942;2023-02-14T07:57:07;25.40;;;9.13;;
68923;SDS011;55961;52.156;20.942;2023-02-14T07:59:33;20.70;;;7.57;;
68923;SDS011;55961;52.156;20.942;2023-02-14T08:01:59;20.90;;;7.18;;
68923;SDS011;55961;52.156;20.942;2023-02-14T08:04:25;18.37;;;7.80;;
68923;SDS011;55961;52.156;20.942;2023-02-14T08:06:54;23.38;;;8.55;;
68923;SDS011;55961;52.156;20.942;2023-02-14T08:09:20;21.50;;;8.70;;
68923;SDS011;55961;52.156;20.942;2023-02-14T08:11:53;19.03;;;7.80;;
68923;SDS011;55961;52.156;20.942;2023-02-14T08:14:39;20.02;;;8.55;;
68923;SDS011;55961;52.156;20.942;2023-02-14T08:17:06;19.73;;;8.02;;
68923;SDS011;55961;52.156;20.942;2023-02-14T08:19:34;17.95;;;7.70;;
68923;SDS011;55961;52.156;20.942;2023-02-14T08:22:01;16.98;;;6.68;;
68923;SDS011;55961;52.156;20.942;2023-02-14T08:24:28;19.57;;;7.53;;
68923;SDS011;55961;52.156;20.942;2023-02-14T08:26:54;17.60;;;7.65;;
68923;SDS011;55961;52.156;20.942;2023-02-14T08:29:20;19.35;;;8.10;;
68923;SDS011;55961;52.156;20.942;2023-02-14T08:31:46;17.85;;;7.60;;
68923;SDS011;55961;52.156;20.942;2023-02-14T08:34:13;20.63;;;7.75;;
68923;SDS011;55961;52.156;20.942;2023-02-14T08:36:40;18.73;;;7.47;;
68923;SDS011;55961;52.156;20.942;2023-02-14T08:39:06;12.40;;;4.97;;
68923;SDS011;55961;52.156;20.942;2023-02-14T08:41:33;14.55;;;5.78;;
68923;SDS011;55961;52.156;20.942;2023-02-14T08:43:59;16.98;;;6.82;;
68923;SDS011;55961;52.156;20.942;2023-02-14T08:46:25;19.23;;;7.30;;
68923;SDS011;55961;52.156;20.942;2023-02-14T08:48:51;18.20;;;6.70;;
68923;SDS011;55961;52.156;20.942;2023-02-14T08:51:19;17.80;;;8.00;;
68923;SDS011;55961;52.156;20.942;2023-02-14T08:53:50;17.77;;;7.93;;
68923;SDS011;55961;52.156;20.942;2023-02-14T08:56:16;21.60;;;7.60;;
68923;SDS011;55961;52.156;20.942;2023-02-14T08:58:44;19.50;;;7.32;;
68923;SDS011;55961;52.156;20.942;2023-02-14T09:01:11;20.27;;;7.87;;
68923;SDS011;55961;52.156;20.942;2023-02-14T09:03:39;19.77;;;7.88;;
68923;SDS011;55961;52.156;20.942;2023-02-14T09:06:09;20.67;;;7.93;;
68923;SDS011;55961;52.156;20.942;2023-02-14T09:08:36;21.00;;;8.23;;
68923;SDS011;55961;52.156;20.942;2023-02-14T09:11:11;15.55;;;7.28;;
68923;SDS011;55961;52.156;20.942;2023-02-14T09:13:38;18.10;;;6.40;;
68923;SDS011;55961;52.156;20.942;2023-02-14T09:16:05;18.35;;;7.65;;
68923;SDS011;55961;52.156;20.942;2023-02-14T09:18:32;16.23;;;6.93;;
68923;SDS011;55961;52.156;20.942;2023-02-14T09:20:58;22.08;;;8.63;;
68923;SDS011;55961;52.156;20.942;2023-02-14T09:23:24;18.05;;;8.63;;
68923;SDS011;55961;52.156;20.942;2023-02-14T09:25:50;19.93;;;7.77;;
68923;SDS011;55961;52.156;20.942;2023-02-14T09:28:23;18.33;;;7.13;;
68923;SDS011;55961;52.156;20.942;2023-02-14T09:30:49;18.63;;;7.45;;
68923;SDS011;55961;52.156;20.942;2023-02-14T09:33:15;16.40;;;7.43;;
68923;SDS011;55961;52.156;20.942;2023-02-14T09:35:41;20.57;;;7.77;;
68923;SDS011;55961;52.156;20.942;2023-02-14T09:38:25;17.23;;;6.22;;
68923;SDS011;55961;52.156;20.942;2023-02-14T09:40:51;16.75;;;5.90;;
68923;SDS011;55961;52.156;20.942;2023-02-14T09:43:27;16.13;;;7.05;;
68923;SDS011;55961;52.156;20.942;2023-02-14T09:45:59;17.93;;;7.37;;
68923;SDS011;55961;52.156;20.942;2023-02-14T09:48:38;18.50;;;8.02;;
68923;SDS011;55961;52.156;20.942;2023-02-14T09:51:15;17.50;;;7.20;;
68923;SDS011;55961;52.156;20.942;2023-02-14T09:53:45;18.70;;;7.10;;
68923;SDS011;55961;52.156;20.942;2023-02-14T09:56:19;22.73;;;7.55;;
68923;SDS011;55961;52.156;20.942;2023-02-14T10:01:38;18.42;;;7.20;;
68923;SDS011;55961;52.156;20.942;2023-02-14T10:13:37;23.23;;;7.93;;
68923;SDS011;55961;52.156;20.942;2023-02-14T10:15:31;21.50;;;7.75;;
68923;SDS011;55961;52.156;20.942;2023-02-14T10:20:43;17.30;;;6.45;;
68923;SDS011;55961;52.156;20.942;2023-02-14T10:23:49;21.17;;;8.55;;
68923;SDS011;55961;52.156;20.942;2023-02-14T10:26:12;17.13;;;7.27;;
68923;SDS011;55961;52.156;20.942;2023-02-14T10:28:59;14.45;;;7.22;;
68923;SDS011;55961;52.156;20.942;2023-02-14T10:45:46;22.30;;;8.18;;
68923;SDS011;55961;52.156;20.942;2023-02-14T10:48:33;19.30;;;7.90;;
68923;SDS011;55961;52.156;20.942;2023-02-14T10:51:19;14.40;;;6.15;;
68923;SDS011;55961;52.156;20.942;2023-02-14T10:54:08;17.50;;;7.23;;
68923;SDS011;55961;52.156;20.942;2023-02-14T10:57:02;15.80;;;6.07;;
68923;SDS011;55961;52.156;20.942;2023-02-14T11:02:08;18.00;;;7.20;;
68923;SDS011;55961;52.156;20.942;2023-02-14T11:04:38;19.27;;;8.52;;
68923;SDS011;55961;52.156;20.942;2023-02-14T11:07:11;19.57;;;8.93;;
68923;SDS011;55961;52.156;20.942;2023-02-14T11:09:38;17.08;;;8.68;;
68923;SDS011;55961;52.156;20.942;2023-02-14T11:12:04;16.52;;;6.70;;
68923;SDS011;55961;52.156;20.942;2023-02-14T11:14:32;16.33;;;6.70;;
68923;SDS011;55961;52.156;20.942;2023-02-14T11:17:00;17.65;;;7.53;;
68923;SDS011;55961;52.156;20.942;2023-02-14T11:20:04;20.27;;;8.47;;
68923;SDS011;55961;52.156;20.942;2023-02-14T11:22:48;16.38;;;6.97;;
68923;SDS011;55961;52.156;20.942;2023-02-14T11:27:55;22.27;;;8.70;;
68923;SDS011;55961;52.156;20.942;2023-02-14T11:30:34;18.65;;;7.00;;
68923;SDS011;55961;52.156;20.942;2023-02-14T11:33:03;21.83;;;8.30;;
68923;SDS011;55961;52.156;20.942;2023-02-14T11:35:29;20.70;;;9.05;;
68923;SDS011;55961;52.156;20.942;2023-02-14T11:38:06;17.08;;;7.32;;
68923;SDS011;55961;52.156;20.942;2023-02-14T11:40:56;21.33;;;7.93;;
68923;SDS011;55961;52.156;20.942;2023-02-14T11:48:38;17.80;;;8.15;;
68923;SDS011;55961;52.156;20.942;2023-02-14T11:51:24;20.90;;;7.28;;
68923;SDS011;55961;52.156;20.942;2023-02-14T11:54:02;16.05;;;7.93;;
68923;SDS011;55961;52.156;20.942;2023-02-14T11:59:24;15.53;;;6.30;;
68923;SDS011;55961;52.156;20.942;2023-02-14T12:02:00;17.65;;;8.02;;
68923;SDS011;55961;52.156;20.942;2023-02-14T12:04:37;16.80;;;8.15;;
68923;SDS011;55961;52.156;20.942;2023-02-14T12:07:15;17.17;;;6.43;;
68923;SDS011;55961;52.156;20.942;2023-02-14T12:09:44;15.82;;;7.85;;
68923;SDS011;55961;52.156;20.942;2023-02-14T12:12:26;16.20;;;7.03;;
68923;SDS011;55961;52.156;20.942;2023-02-14T12:15:09;18.00;;;7.60;;
68923;SDS011;55961;52.156;20.942;2023-02-14T12:20:39;16.80;;;8.40;;
68923;SDS011;55961;52.156;20.942;2023-02-14T12:23:23;19.02;;;8.50;;
68923;SDS011;55961;52.156;20.942;2023-02-14T12:26:32;19.97;;;9.27;;
68923;SDS011;55961;52.156;20.942;2023-02-14T12:31:48;18.10;;;8.48;;
68923;SDS011;55961;52.156;20.942;2023-02-14T12:34:14;21.63;;;9.20;;
68923;SDS011;55961;52.156;20.942;2023-02-14T12:39:34;21.63;;;9.40;;
68923;SDS011;55961;52.156;20.942;2023-02-14T12:42:32;19.13;;;7.18;;
68923;SDS011;55961;52.156;20.942;2023-02-14T12:45:23;21.55;;;9.23;;
68923;SDS011;55961;52.156;20.942;2023-02-14T12:50:46;22.90;;;9.90;;
68923;SDS011;55961;52.156;20.942;2023-02-14T13:00:58;19.27;;;8.40;;
68923;SDS011;55961;52.156;20.942;2023-02-14T13:06:37;22.23;;;9.63;;
68923;SDS011;55961;52.156;20.942;2023-02-14T13:12:02;23.15;;;9.48;;
68923;SDS011;55961;52.156;20.942;2023-02-14T13:20:03;17.47;;;7.37;;
68923;SDS011;55961;52.156;20.942;2023-02-14T13:22:30;22.38;;;8.80;;
68923;SDS011;55961;52.156;20.942;2023-02-14T13:25:05;18.50;;;8.30;;
68923;SDS011;55961;52.156;20.942;2023-02-14T13:27:47;17.05;;;7.80;;
68923;SDS011;55961;52.156;20.942;2023-02-14T13:30:18;18.15;;;9.20;;
68923;SDS011;55961;52.156;20.942;2023-02-14T13:32:48;21.17;;;7.80;;
68923;SDS011;55961;52.156;20.942;2023-02-14T13:35:17;20.20;;;8.30;;
68923;SDS011;55961;52.156;20.942;2023-02-14T13:38:04;16.50;;;7.55;;
68923;SDS011;55961;52.156;20.942;2023-02-14T13:40:37;15.07;;;7.00;;
68923;SDS011;55961;52.156;20.942;2023-02-14T13:43:04;20.10;;;9.45;;
68923;SDS011;55961;52.156;20.942;2023-02-14T13:55:57;22.90;;;9.60;;
68923;SDS011;55961;52.156;20.942;2023-02-14T13:58:23;25.00;;;10.57;;
68923;SDS011;55961;52.156;20.942;2023-02-14T14:00:53;18.33;;;7.68;;
68923;SDS011;55961;52.156;20.942;2023-02-14T14:10:55;24.48;;;11.95;;
68923;SDS011;55961;52.156;20.942;2023-02-14T14:19:01;23.58;;;9.88;;
68923;SDS011;55961;52.156;20.942;2023-02-14T14:21:41;20.43;;;8.37;;
68923;SDS011;55961;52.156;20.942;2023-02-14T14:24:21;26.88;;;12.55;;
68923;SDS011;55961;52.156;20.942;2023-02-14T14:35:14;28.17;;;13.73;;
68923;SDS011;55961;52.156;20.942;2023-02-14T14:37:45;24.15;;;12.93;;
68923;SDS011;55961;52.156;20.942;2023-02-14T14:40:18;24.10;;;12.85;;
68923;SDS011;55961;52.156;20.942;2023-02-14T14:42:44;17.65;;;10.00;;
68923;SDS011;55961;52.156;20.942;2023-02-14T14:45:20;24.38;;;11.95;;
68923;SDS011;55961;52.156;20.942;2023-02-14T14:47:50;22.20;;;12.13;;
68923;SDS011;55961;52.156;20.942;2023-02-14T14:50:22;27.08;;;13.07;;
68923;SDS011;55961;52.156;20.942;2023-02-14T14:52:51;27.67;;;12.65;;
68923;SDS011;55961;52.156;20.942;2023-02-14T14:57:49;27.20;;;14.35;;
68923;SDS011;55961;52.156;20.942;2023-02-14T15:02:58;35.13;;;15.68;;
68923;SDS011;55961;52.156;20.942;2023-02-14T15:05:26;33.45;;;15.68;;
68923;SDS011;55961;52.156;20.942;2023-02-14T15:07:54;31.13;;;15.75;;
68923;SDS011;55961;52.156;20.942;2023-02-14T15:10:28;30.52;;;16.98;;
68923;SDS011;55961;52.156;20.942;2023-02-14T15:12:56;28.27;;;14.80;;
68923;SDS011;55961;52.156;20.942;2023-02-14T15:15:42;30.10;;;15.50;;
68923;SDS011;55961;52.156;20.942;2023-02-14T15:18:14;35.22;;;17.45;;
68923;SDS011;55961;52.156;20.942;2023-02-14T15:20:40;31.02;;;16.35;;
68923;SDS011;55961;52.156;20.942;2023-02-14T15:23:13;36.08;;;18.25;;
68923;SDS011;55961;52.156;20.942;2023-02-14T15:25:48;31.07;;;16.53;;
68923;SDS011;55961;52.156;20.942;2023-02-14T15:28:28;36.88;;;17.80;;
68923;SDS011;55961;52.156;20.942;2023-02-14T15:31:00;37.47;;;18.40;;
68923;SDS011;55961;52.156;20.942;2023-02-14T15:33:28;32.55;;;17.95;;
68923;SDS011;55961;52.156;20.942;2023-02-14T15:35:55;34.70;;;18.65;;
68923;SDS011;55961;52.156;20.942;2023-02-14T15:38:25;34.37;;;15.63;;
68923;SDS011;55961;52.156;20.942;2023-02-14T15:40:52;31.98;;;16.50;;
68923;SDS011;55961;52.156;20.942;2023-02-14T15:43:32;31.23;;;15.02;;
68923;SDS011;55961;52.156;20.942;2023-02-14T15:48:44;24.38;;;13.05;;
68923;SDS011;55961;52.156;20.942;2023-02-14T15:51:23;33.77;;;17.13;;
68923;SDS011;55961;52.156;20.942;2023-02-14T15:53:58;32.33;;;14.30;;
68923;SDS011;55961;52.156;20.942;2023-02-14T15:56:27;26.35;;;12.90;;
68923;SDS011;55961;52.156;20.942;2023-02-14T15:59:06;34.17;;;15.80;;
68923;SDS011;55961;52.156;20.942;2023-02-14T16:01:41;36.08;;;17.88;;
68923;SDS011;55961;52.156;20.942;2023-02-14T16:04:23;26.43;;;12.50;;
68923;SDS011;55961;52.156;20.942;2023-02-14T16:07:52;35.63;;;16.48;;
68923;SDS011;55961;52.156;20.942;2023-02-14T16:13:34;34.92;;;15.68;;
68923;SDS011;55961;52.156;20.942;2023-02-14T16:15:37;40.28;;;18.85;;
68923;SDS011;55961;52.156;20.942;2023-02-14T16:18:18;39.27;;;18.80;;
68923;SDS011;55961;52.156;20.942;2023-02-14T16:21:08;41.17;;;18.95;;
68923;SDS011;55961;52.156;20.942;2023-02-14T16:23:41;37.63;;;17.38;;
68923;SDS011;55961;52.156;20.942;2023-02-14T16:26:09;40.30;;;15.32;;
68923;SDS011;55961;52.156;20.942;2023-02-14T16:28:36;30.50;;;12.32;;
68923;SDS011;55961;52.156;20.942;2023-02-14T16:31:03;39.43;;;15.67;;
68923;SDS011;55961;52.156;20.942;2023-02-14T16:33:35;40.58;;;15.82;;
68923;SDS011;55961;52.156;20.942;2023-02-14T16:36:07;40.10;;;17.30;;
68923;SDS011;55961;52.156;20.942;2023-02-14T16:38:46;29.02;;;13.55;;
68923;SDS011;55961;52.156;20.942;2023-02-14T16:41:16;38.38;;;17.83;;
68923;SDS011;55961;52.156;20.942;2023-02-14T16:43:45;45.60;;;19.50;;
68923;SDS011;55961;52.156;20.942;2023-02-14T16:46:12;44.90;;;20.52;;
68923;SDS011;55961;52.156;20.942;2023-02-14T16:48:43;47.65;;;23.08;;
68923;SDS011;55961;52.156;20.942;2023-02-14T16:51:12;56.35;;;22.92;;
68923;SDS011;55961;52.156;20.942;2023-02-14T16:53:40;42.97;;;20.23;;
68923;SDS011;55961;52.156;20.942;2023-02-14T16:56:12;49.63;;;20.27;;
68923;SDS011;55961;52.156;20.942;2023-02-14T16:59:00;49.70;;;19.88;;
68923;SDS011;55961;52.156;20.942;2023-02-14T17:01:26;54.30;;;22.38;;
68923;SDS011;55961;52.156;20.942;2023-02-14T17:03:52;53.30;;;18.83;;
68923;SDS011;55961;52.156;20.942;2023-02-14T17:06:19;81.22;;;29.05;;
68923;SDS011;55961;52.156;20.942;2023-02-14T17:08:49;62.13;;;23.27;;
68923;SDS011;55961;52.156;20.942;2023-02-14T17:11:16;64.50;;;24.90;;
68923;SDS011;55961;52.156;20.942;2023-02-14T17:13:43;52.70;;;21.77;;
68923;SDS011;55961;52.156;20.942;2023-02-14T17:16:11;60.43;;;21.20;;
68923;SDS011;55961;52.156;20.942;2023-02-14T17:18:39;51.85;;;21.00;;